This is the latest recevied weather packets stored in our database for station/object KO4T-4. If no packets are shown the sender has not sent any weather packets the latest 10 day(s).
| Time | Temp. | Humidity | Pressure | Rain* | Wind** | Luminosity | Snow |
|---|---|---|---|---|---|---|---|
| 1777488304 | 26.11° C | 60% | 1009.6 hPa | 0 mm | - | - | - |
| 1777488004 | 26.67° C | 60% | 1009.6 hPa | 0 mm | - | - | - |
| 1777487704 | 26.67° C | 61% | 1009.7 hPa | 0 mm | - | - | - |
| 1777487404 | 27.22° C | 58% | 1009.8 hPa | 0 mm | - | - | - |
| 1777487104 | 26.67° C | 62% | 1009.9 hPa | 0 mm | - | - | - |
| 1777486804 | 26.67° C | 62% | 1010.1 hPa | 0 mm | - | - | - |
| 1777486503 | 26.11° C | 63% | 1010.2 hPa | 0 mm | - | - | - |
| 1777486204 | 25.56° C | 65% | 1010.3 hPa | 0 mm | - | - | - |
| 1777485903 | 25.56° C | 66% | 1010.4 hPa | 0 mm | - | - | - |
| 1777485604 | 25.56° C | 65% | 1010.2 hPa | 0 mm | - | - | - |
| 1777485304 | 25.56° C | 63% | 1010.3 hPa | 0 mm | - | - | - |
| 1777485004 | 25° C | 66% | 1010.6 hPa | 0 mm | - | - | - |
| 1777484703 | 25° C | 68% | 1010.7 hPa | 0 mm | - | - | - |
| 1777484404 | 25° C | 67% | 1010.7 hPa | 0 mm | - | - | - |
| 1777484104 | 25° C | 66% | 1010.7 hPa | 0 mm | - | - | - |
| 1777483804 | 25° C | 69% | 1010.9 hPa | 0 mm | - | - | - |
| 1777483504 | 24.44° C | 69% | 1011 hPa | 0 mm | - | - | - |
| 1777483204 | 23.89° C | 71% | 1011.1 hPa | 0 mm | - | - | - |
| 1777482904 | 23.33° C | 73% | 1011.3 hPa | 0 mm | - | - | - |
| 1777482604 | 23.33° C | 73% | 1011.3 hPa | 0 mm | - | - | - |
| 1777482303 | 23.33° C | 74% | 1011.5 hPa | 0 mm | - | - | - |
| 1777482004 | 23.33° C | 74% | 1011.4 hPa | 0 mm | - | - | - |
| 1777481704 | 22.78° C | 75% | 1011.6 hPa | 0 mm | - | - | - |
| 1777481404 | 22.22° C | 76% | 1011.6 hPa | 0 mm | - | - | - |
| 1777481104 | 22.22° C | 78% | 1011.6 hPa | 0 mm | - | - | - |
* Rain latest hour (hover to see other rain measurements)
** Current wind speed in m/s (hover to see current wind gust speed)